Time,TemperatureF,DewpointF,PressureIn,WindDirection,WindDirectionDegrees,WindSpeedMPH,WindSpeedGustMPH,Humidity,HourlyPrecipIn,Conditions,Clouds,dailyrainin,SoftwareType,DateUTC
2013-02-10 00:00:00,10.8,-9.5,30.11,North,0,0.0,0.0,39,0.00,,,0.00,WUHU216WMR968SP,2013-02-10 05:00:00,
2013-02-10 00:05:00,10.2,-10.0,30.14,North,0,0.0,0.0,39,0.00,,,0.00,WUHU216WMR968SP,2013-02-10 05:05:00,
2013-02-10 00:10:00,9.9,-10.3,30.14,North,0,0.0,0.0,39,0.00,,,0.00,WUHU216WMR968SP,2013-02-10 05:10:00,
2013-02-10 00:15:00,9.3,-10.9,30.14,North,0,0.0,0.0,39,0.00,,,0.00,WUHU216WMR968SP,2013-02-10 05:15:00,
2013-02-10 00:20:00,9.3,-10.9,30.14,North,0,0.0,0.0,39,0.00,,,0.00,WUHU216WMR968SP,2013-02-10 05:20:00,
2013-02-10 00:25:00,9.1,-11.0,30.11,North,0,0.0,0.0,39,0.00,,,0.00,WUHU216WMR968SP,2013-02-10 05:25:00,
2013-02-10 00:30:00,9.3,-10.9,30.11,North,0,0.0,0.0,39,0.00,,,0.00,WUHU216WMR968SP,2013-02-10 05:30:00,
2013-02-10 00:35:00,9.5,-10.7,30.14,North,0,0.0,0.0,39,0.00,,,0.00,WUHU216WMR968SP,2013-02-10 05:35:00,
2013-02-10 00:40:00,9.7,-10.5,30.14,North,0,0.0,0.0,39,0.00,,,0.00,WUHU216WMR968SP,2013-02-10 05:40:00,
2013-02-10 00:45:00,9.7,-10.5,30.14,North,0,0.0,0.0,39,0.00,,,0.00,WUHU216WMR968SP,2013-02-10 05:45:00,
2013-02-10 00:50:00,9.5,-10.7,30.14,North,0,0.0,0.0,39,0.00,,,0.00,WUHU216WMR968SP,2013-02-10 05:50:00,
2013-02-10 00:55:00,9.5,-10.7,30.14,North,0,0.0,0.0,39,0.00,,,0.00,WUHU216WMR968SP,2013-02-10 05:55:00,
2013-02-10 01:00:00,9.5,-10.7,30.14,North,0,0.0,0.0,39,0.00,,,0.00,WUHU216WMR968SP,2013-02-10 06:00:00,
2013-02-10 01:05:00,9.5,-10.7,30.14,North,0,0.0,0.0,39,0.00,,,0.00,WUHU216WMR968SP,2013-02-10 06:05:00,
2013-02-10 01:10:00,9.5,-10.7,30.14,North,0,0.0,0.0,39,0.00,,,0.00,WUHU216WMR968SP,2013-02-10 06:10:00,
2013-02-10 01:15:00,9.5,-10.7,30.14,North,0,0.0,0.0,39,0.00,,,0.00,WUHU216WMR968SP,2013-02-10 06:15:00,
2013-02-10 01:20:00,9.3,-10.9,30.14,North,0,0.0,0.0,39,0.00,,,0.00,WUHU216WMR968SP,2013-02-10 06:20:00,
2013-02-10 01:25:00,9.3,-10.9,30.14,North,0,0.0,0.0,39,0.00,,,0.00,WUHU216WMR968SP,2013-02-10 06:25:00,
2013-02-10 01:30:00,9.3,-10.9,30.14,North,0,0.0,0.0,39,0.00,,,0.00,WUHU216WMR968SP,2013-02-10 06:30:00,
2013-02-10 01:35:00,9.3,-10.9,30.14,North,0,0.0,0.0,39,0.00,,,0.00,WUHU216WMR968SP,2013-02-10 06:35:00,
2013-02-10 01:40:00,9.1,-11.0,30.14,North,0,0.0,0.0,39,0.00,,,0.00,WUHU216WMR968SP,2013-02-10 06:40:00,
2013-02-10 01:45:00,9.7,-10.5,30.14,North,0,0.0,0.0,39,0.00,,,0.00,WUHU216WMR968SP,2013-02-10 06:45:00,
2013-02-10 01:50:00,9.9,-10.3,30.14,North,0,0.0,0.0,39,0.00,,,0.00,WUHU216WMR968SP,2013-02-10 06:50:00,
2013-02-10 01:55:00,10.0,-10.2,30.14,North,0,0.0,0.0,39,0.00,,,0.00,WUHU216WMR968SP,2013-02-10 06:55:00,
2013-02-10 02:00:00,10.0,-10.2,30.14,North,0,0.0,0.0,39,0.00,,,0.00,WUHU216WMR968SP,2013-02-10 07:00:00,
2013-02-10 02:05:00,9.9,-10.3,30.17,North,0,0.0,0.0,39,0.00,,,0.00,WUHU216WMR968SP,2013-02-10 07:05:00,
2013-02-10 02:10:00,9.9,-10.3,30.17,North,0,0.0,0.0,39,0.00,,,0.00,WUHU216WMR968SP,2013-02-10 07:10:00,
2013-02-10 02:15:00,9.7,-10.5,30.17,North,0,0.0,0.0,39,0.00,,,0.00,WUHU216WMR968SP,2013-02-10 07:15:00,
2013-02-10 02:20:00,9.5,-10.7,30.17,North,0,0.0,0.0,39,0.00,,,0.00,WUHU216WMR968SP,2013-02-10 07:20:00,
2013-02-10 02:25:00,9.1,-11.0,30.17,North,0,0.0,0.0,39,0.00,,,0.00,WUHU216WMR968SP,2013-02-10 07:25:00,
2013-02-10 02:30:00,9.1,-11.0,30.17,North,0,0.0,0.0,39,0.00,,,0.00,WUHU216WMR968SP,2013-02-10 07:30:00,
2013-02-10 02:35:00,8.8,-11.3,30.17,North,0,0.0,0.0,39,0.00,,,0.00,WUHU216WMR968SP,2013-02-10 07:35:00,
2013-02-10 02:40:00,9.1,-11.0,30.17,North,0,0.0,0.0,39,0.00,,,0.00,WUHU216WMR968SP,2013-02-10 07:40:00,
2013-02-10 02:45:00,8.8,-11.3,30.17,North,0,0.0,0.0,39,0.00,,,0.00,WUHU216WMR968SP,2013-02-10 07:45:00,
2013-02-10 02:50:00,8.4,-11.7,30.17,North,0,0.0,0.0,39,0.00,,,0.00,WUHU216WMR968SP,2013-02-10 07:50:00,
2013-02-10 02:55:00,8.6,-11.5,30.17,North,0,0.0,0.0,39,0.00,,,0.00,WUHU216WMR968SP,2013-02-10 07:55:00,
2013-02-10 03:00:00,8.6,-11.5,30.17,North,0,0.0,0.0,39,0.00,,,0.00,WUHU216WMR968SP,2013-02-10 08:00:00,
2013-02-10 03:05:00,8.8,-11.3,30.17,North,0,0.0,0.0,39,0.00,,,0.00,WUHU216WMR968SP,2013-02-10 08:05:00,
2013-02-10 03:10:00,8.8,-11.3,30.17,North,0,0.0,0.0,39,0.00,,,0.00,WUHU216WMR968SP,2013-02-10 08:10:00,
2013-02-10 03:15:00,9.0,-11.1,30.17,North,0,0.0,0.0,39,0.00,,,0.00,WUHU216WMR968SP,2013-02-10 08:15:00,
2013-02-10 03:20:00,9.3,-10.9,30.17,North,0,0.0,0.0,39,0.00,,,0.00,WUHU216WMR968SP,2013-02-10 08:20:00,
2013-02-10 03:25:00,9.3,-10.9,30.17,North,0,0.0,0.0,39,0.00,,,0.00,WUHU216WMR968SP,2013-02-10 08:25:00,
2013-02-10 03:30:00,9.1,-11.0,30.17,North,0,0.0,0.0,39,0.00,,,0.00,WUHU216WMR968SP,2013-02-10 08:30:00,
2013-02-10 03:35:00,8.8,-11.3,30.17,North,0,0.0,0.0,39,0.00,,,0.00,WUHU216WMR968SP,2013-02-10 08:35:00,
2013-02-10 03:41:00,8.8,-11.3,30.17,North,0,0.0,0.0,39,0.00,,,0.00,WUHU216WMR968SP,2013-02-10 08:41:00,
2013-02-10 03:46:00,8.8,-11.3,30.17,North,0,0.0,0.0,39,0.00,,,0.00,WUHU216WMR968SP,2013-02-10 08:46:00,
2013-02-10 03:51:00,9.1,-11.0,30.17,North,0,0.0,0.0,39,0.00,,,0.00,WUHU216WMR968SP,2013-02-10 08:51:00,
2013-02-10 03:56:00,8.8,-11.3,30.17,North,0,0.0,0.0,39,0.00,,,0.00,WUHU216WMR968SP,2013-02-10 08:56:00,
2013-02-10 04:01:00,8.6,-11.5,30.17,North,0,0.0,0.0,39,0.00,,,0.00,WUHU216WMR968SP,2013-02-10 09:01:00,
2013-02-10 04:06:00,8.6,-11.5,30.17,North,0,0.0,0.0,39,0.00,,,0.00,WUHU216WMR968SP,2013-02-10 09:06:00,
2013-02-10 04:11:00,8.6,-11.5,30.17,North,0,0.0,0.0,39,0.00,,,0.00,WUHU216WMR968SP,2013-02-10 09:11:00,
2013-02-10 04:16:00,8.8,-11.3,30.17,North,0,0.0,0.0,39,0.00,,,0.00,WUHU216WMR968SP,2013-02-10 09:16:00,
2013-02-10 04:21:00,8.6,-11.5,30.20,North,0,0.0,0.0,39,0.00,,,0.00,WUHU216WMR968SP,2013-02-10 09:21:00,
2013-02-10 04:26:00,8.4,-11.7,30.20,North,0,0.0,0.0,39,0.00,,,0.00,WUHU216WMR968SP,2013-02-10 09:26:00,
2013-02-10 04:31:00,8.2,-11.8,30.20,North,0,0.0,0.0,39,0.00,,,0.00,WUHU216WMR968SP,2013-02-10 09:31:00,
2013-02-10 04:36:00,8.2,-11.8,30.20,North,0,0.0,0.0,39,0.00,,,0.00,WUHU216WMR968SP,2013-02-10 09:36:00,
2013-02-10 04:41:00,8.1,-11.9,30.20,North,0,0.0,0.0,39,0.00,,,0.00,WUHU216WMR968SP,2013-02-10 09:41:00,
2013-02-10 04:46:00,7.9,-12.1,30.20,North,0,0.0,0.0,39,0.00,,,0.00,WUHU216WMR968SP,2013-02-10 09:46:00,
2013-02-10 04:51:00,7.9,-12.1,30.20,North,0,0.0,0.0,39,0.00,,,0.00,WUHU216WMR968SP,2013-02-10 09:51:00,
2013-02-10 04:56:00,7.5,-12.5,30.20,North,0,0.0,0.0,39,0.00,,,0.00,WUHU216WMR968SP,2013-02-10 09:56:00,
2013-02-10 05:01:00,7.3,-12.7,30.20,North,0,0.0,0.0,39,0.00,,,0.00,WUHU216WMR968SP,2013-02-10 10:01:00,
2013-02-10 05:06:00,7.2,-12.7,30.20,North,0,0.0,0.0,39,0.00,,,0.00,WUHU216WMR968SP,2013-02-10 10:06:00,
2013-02-10 05:11:00,6.8,-13.1,30.20,North,0,0.0,0.0,39,0.00,,,0.00,WUHU216WMR968SP,2013-02-10 10:11:00,
2013-02-10 05:16:00,6.6,-13.3,30.20,North,0,0.0,0.0,39,0.00,,,0.00,WUHU216WMR968SP,2013-02-10 10:16:00,
2013-02-10 05:21:00,6.3,-13.6,30.20,North,0,0.0,0.0,39,0.00,,,0.00,WUHU216WMR968SP,2013-02-10 10:21:00,
2013-02-10 05:26:00,6.3,-13.6,30.20,North,0,0.0,0.0,39,0.00,,,0.00,WUHU216WMR968SP,2013-02-10 10:26:00,
2013-02-10 05:31:00,6.4,-13.5,30.20,North,0,0.0,0.0,39,0.00,,,0.00,WUHU216WMR968SP,2013-02-10 10:31:00,
2013-02-10 05:36:00,6.4,-13.5,30.23,North,0,0.0,0.0,39,0.00,,,0.00,WUHU216WMR968SP,2013-02-10 10:36:00,
2013-02-10 05:41:00,6.3,-13.6,30.23,North,0,0.0,0.0,39,0.00,,,0.00,WUHU216WMR968SP,2013-02-10 10:41:00,
2013-02-10 05:46:00,6.3,-13.6,30.23,North,0,0.0,0.0,39,0.00,,,0.00,WUHU216WMR968SP,2013-02-10 10:46:00,
2013-02-10 05:51:00,6.1,-13.7,30.23,North,0,0.0,0.0,39,0.00,,,0.00,WUHU216WMR968SP,2013-02-10 10:51:00,
2013-02-10 05:56:00,6.1,-13.7,30.23,North,0,0.0,0.0,39,0.00,,,0.00,WUHU216WMR968SP,2013-02-10 10:56:00,
2013-02-10 06:01:00,6.4,-13.5,30.23,North,0,0.0,0.0,39,0.00,,,0.00,WUHU216WMR968SP,2013-02-10 11:01:00,
2013-02-10 06:06:00,6.3,-13.6,30.23,North,0,0.0,0.0,39,0.00,,,0.00,WUHU216WMR968SP,2013-02-10 11:06:00,
2013-02-10 06:11:00,5.9,-13.9,30.23,North,0,0.0,0.0,39,0.00,,,0.00,WUHU216WMR968SP,2013-02-10 11:11:00,
2013-02-10 06:16:00,5.9,-13.9,30.23,North,0,0.0,0.0,39,0.00,,,0.00,WUHU216WMR968SP,2013-02-10 11:16:00,
2013-02-10 06:21:00,5.9,-13.9,30.23,North,0,0.0,0.0,39,0.00,,,0.00,WUHU216WMR968SP,2013-02-10 11:21:00,
2013-02-10 06:26:00,5.9,-13.9,30.23,North,0,0.0,0.0,39,0.00,,,0.00,WUHU216WMR968SP,2013-02-10 11:26:00,
2013-02-10 06:31:00,6.1,-13.7,30.23,North,0,0.0,0.0,39,0.00,,,0.00,WUHU216WMR968SP,2013-02-10 11:31:00,
2013-02-10 06:36:00,5.9,-13.9,30.23,North,0,0.0,0.0,39,0.00,,,0.00,WUHU216WMR968SP,2013-02-10 11:36:00,
2013-02-10 06:41:00,5.7,-14.1,30.23,North,0,0.0,0.0,39,0.00,,,0.00,WUHU216WMR968SP,2013-02-10 11:41:00,
2013-02-10 06:46:00,5.4,-14.4,30.23,North,0,0.0,0.0,39,0.00,,,0.00,WUHU216WMR968SP,2013-02-10 11:46:00,
2013-02-10 06:51:00,5.2,-14.6,30.23,North,0,0.0,0.0,39,0.00,,,0.00,WUHU216WMR968SP,2013-02-10 11:51:00,
2013-02-10 06:56:00,5.4,-14.4,30.23,North,0,0.0,0.0,39,0.00,,,0.00,WUHU216WMR968SP,2013-02-10 11:56:00,
2013-02-10 07:01:00,5.0,-14.7,30.23,North,0,0.0,0.0,39,0.00,,,0.00,WUHU216WMR968SP,2013-02-10 12:01:00,
2013-02-10 07:06:00,4.8,-14.9,30.26,North,0,0.0,0.0,39,0.00,,,0.00,WUHU216WMR968SP,2013-02-10 12:06:00,
2013-02-10 07:11:00,4.5,-15.2,30.26,North,0,0.0,0.0,39,0.00,,,0.00,WUHU216WMR968SP,2013-02-10 12:11:00,
2013-02-10 07:16:00,4.5,-15.2,30.26,North,0,0.0,0.0,39,0.00,,,0.00,WUHU216WMR968SP,2013-02-10 12:16:00,
2013-02-10 07:21:00,4.5,-15.2,30.26,North,0,0.0,0.0,39,0.00,,,0.00,WUHU216WMR968SP,2013-02-10 12:21:00,
2013-02-10 07:26:00,4.1,-15.5,30.26,North,0,0.0,0.0,39,0.00,,,0.00,WUHU216WMR968SP,2013-02-10 12:26:00,
2013-02-10 07:31:00,5.0,-14.7,30.26,North,0,0.0,0.0,39,0.00,,,0.00,WUHU216WMR968SP,2013-02-10 12:31:00,
2013-02-10 07:36:00,5.5,-14.3,30.26,North,0,0.0,0.0,39,0.00,,,0.00,WUHU216WMR968SP,2013-02-10 12:36:00,
2013-02-10 07:41:00,6.1,-13.7,30.26,North,0,0.0,0.0,39,0.00,,,0.00,WUHU216WMR968SP,2013-02-10 12:41:00,
2013-02-10 07:46:00,5.7,-14.1,30.26,North,0,0.0,0.0,39,0.00,,,0.00,WUHU216WMR968SP,2013-02-10 12:46:00,
2013-02-10 07:51:00,5.2,-14.6,30.26,North,0,0.0,0.0,39,0.00,,,0.00,WUHU216WMR968SP,2013-02-10 12:51:00,
2013-02-10 07:56:00,5.0,-14.7,30.26,North,0,0.0,0.0,39,0.00,,,0.00,WUHU216WMR968SP,2013-02-10 12:56:00,
2013-02-10 08:01:00,4.6,-15.1,30.26,North,0,0.0,0.0,39,0.00,,,0.00,WUHU216WMR968SP,2013-02-10 13:01:00,
2013-02-10 08:06:00,5.4,-14.4,30.26,North,0,0.0,0.0,39,0.00,,,0.00,WUHU216WMR968SP,2013-02-10 13:06:00,
2013-02-10 08:11:00,6.3,-13.6,30.26,North,0,0.0,0.0,39,0.00,,,0.00,WUHU216WMR968SP,2013-02-10 13:11:00,
2013-02-10 08:16:00,7.5,-12.5,30.26,North,0,0.0,0.0,39,0.00,,,0.00,WUHU216WMR968SP,2013-02-10 13:16:00,
2013-02-10 08:21:00,8.8,-11.3,30.29,North,0,0.0,0.0,39,0.00,,,0.00,WUHU216WMR968SP,2013-02-10 13:21:00,
2013-02-10 08:26:00,10.8,-9.5,30.29,North,0,0.0,0.0,39,0.00,,,0.00,WUHU216WMR968SP,2013-02-10 13:26:00,
2013-02-10 08:31:00,12.2,-8.2,30.29,North,0,0.0,0.0,39,0.00,,,0.00,WUHU216WMR968SP,2013-02-10 13:31:00,
2013-02-10 08:36:00,13.6,-7.0,30.29,North,0,0.0,0.0,39,0.00,,,0.00,WUHU216WMR968SP,2013-02-10 13:36:00,
2013-02-10 08:41:00,15.1,-6.7,30.29,North,0,0.0,0.0,37,0.00,,,0.00,WUHU216WMR968SP,2013-02-10 13:41:00,
2013-02-10 08:46:00,16.9,-5.7,30.29,North,0,0.0,0.0,36,0.00,,,0.00,WUHU216WMR968SP,2013-02-10 13:46:00,
2013-02-10 08:51:00,18.3,-5.6,30.29,North,0,0.0,0.0,34,0.00,,,0.00,WUHU216WMR968SP,2013-02-10 13:51:00,
2013-02-10 08:56:00,19.4,-4.6,30.29,North,0,0.0,0.0,34,0.00,,,0.00,WUHU216WMR968SP,2013-02-10 13:56:00,
2013-02-10 09:01:00,20.5,-4.3,30.29,North,0,0.0,0.0,33,0.00,,,0.00,WUHU216WMR968SP,2013-02-10 14:01:00,
2013-02-10 09:06:00,21.4,-4.1,30.29,North,0,0.0,0.0,32,0.00,,,0.00,WUHU216WMR968SP,2013-02-10 14:06:00,
2013-02-10 09:11:00,21.9,-5.0,30.29,North,0,0.0,0.0,30,0.00,,,0.00,WUHU216WMR968SP,2013-02-10 14:11:00,
2013-02-10 09:16:00,22.3,-6.8,30.29,North,0,0.0,0.0,27,0.00,,,0.00,WUHU216WMR968SP,2013-02-10 14:16:00,
2013-02-10 09:21:00,23.0,-6.2,30.29,North,0,0.0,0.0,27,0.00,,,0.00,WUHU216WMR968SP,2013-02-10 14:21:00,
2013-02-10 09:26:00,23.4,-5.8,30.29,North,0,0.0,0.0,27,0.00,,,0.00,WUHU216WMR968SP,2013-02-10 14:26:00,
2013-02-10 09:31:00,24.1,-5.2,30.29,North,0,0.0,0.0,27,0.00,,,0.00,WUHU216WMR968SP,2013-02-10 14:31:00,
2013-02-10 09:36:00,24.4,-7.4,30.29,North,0,0.0,0.0,24,0.00,,,0.00,WUHU216WMR968SP,2013-02-10 14:36:00,
2013-02-10 09:42:00,24.3,-7.4,30.29,North,0,0.0,0.0,24,0.00,,,0.00,WUHU216WMR968SP,2013-02-10 14:42:00,
2013-02-10 09:47:00,24.8,-7.0,30.29,North,0,0.0,0.0,24,0.00,,,0.00,WUHU216WMR968SP,2013-02-10 14:47:00,
2013-02-10 09:52:00,25.5,-6.4,30.29,North,0,0.0,0.0,24,0.00,,,0.00,WUHU216WMR968SP,2013-02-10 14:52:00,
2013-02-10 09:57:00,25.7,-6.2,30.29,North,0,0.0,0.0,24,0.00,,,0.00,WUHU216WMR968SP,2013-02-10 14:57:00,
2013-02-10 10:02:00,26.2,-5.8,30.29,North,0,0.0,0.0,24,0.00,,,0.00,WUHU216WMR968SP,2013-02-10 15:02:00,
2013-02-10 10:07:00,26.1,-5.9,30.29,North,0,0.0,0.0,24,0.00,,,0.00,WUHU216WMR968SP,2013-02-10 15:07:00,
2013-02-10 10:12:00,26.2,-5.8,30.29,North,0,0.0,0.0,24,0.00,,,0.00,WUHU216WMR968SP,2013-02-10 15:12:00,
2013-02-10 10:17:00,27.0,-6.0,30.29,North,0,0.0,0.0,23,0.00,,,0.00,WUHU216WMR968SP,2013-02-10 15:17:00,
2013-02-10 10:22:00,27.7,-5.4,30.29,North,0,0.0,0.0,23,0.00,,,0.00,WUHU216WMR968SP,2013-02-10 15:22:00,
2013-02-10 10:27:00,28.2,-5.0,30.29,North,0,0.0,0.0,23,0.00,,,0.00,WUHU216WMR968SP,2013-02-10 15:27:00,
2013-02-10 10:32:00,28.9,-4.4,30.29,North,0,0.0,0.0,23,0.00,,,0.00,WUHU216WMR968SP,2013-02-10 15:32:00,
2013-02-10 10:37:00,28.9,-4.4,30.29,North,0,0.0,0.0,23,0.00,,,0.00,WUHU216WMR968SP,2013-02-10 15:37:00,
2013-02-10 10:42:00,28.8,-4.5,30.29,North,0,0.0,0.0,23,0.00,,,0.00,WUHU216WMR968SP,2013-02-10 15:42:00,
2013-02-10 10:47:00,29.1,-4.2,30.29,North,0,0.0,0.0,23,0.00,,,0.00,WUHU216WMR968SP,2013-02-10 15:47:00,
2013-02-10 10:52:00,29.1,-4.2,30.29,North,0,0.0,0.0,23,0.00,,,0.00,WUHU216WMR968SP,2013-02-10 15:52:00,
2013-02-10 10:57:00,30.2,-3.3,30.29,North,0,0.0,0.0,23,0.00,,,0.00,WUHU216WMR968SP,2013-02-10 15:57:00,
2013-02-10 11:02:00,31.1,-2.5,30.29,North,0,0.0,0.0,23,0.00,,,0.00,WUHU216WMR968SP,2013-02-10 16:02:00,
2013-02-10 11:07:00,30.6,-2.9,30.29,North,0,0.0,0.0,23,0.00,,,0.00,WUHU216WMR968SP,2013-02-10 16:07:00,
2013-02-10 11:12:00,29.8,-6.5,30.29,North,0,0.0,0.0,20,0.00,,,0.00,WUHU216WMR968SP,2013-02-10 16:12:00,
2013-02-10 11:17:00,30.0,-3.4,30.29,North,0,0.0,0.0,23,0.00,,,0.00,WUHU216WMR968SP,2013-02-10 16:17:00,
2013-02-10 11:22:00,29.1,-7.0,30.29,North,0,0.0,0.0,20,0.00,,,0.00,WUHU216WMR968SP,2013-02-10 16:22:00,
2013-02-10 11:27:00,31.3,-2.3,30.29,North,0,0.0,0.0,23,0.00,,,0.00,WUHU216WMR968SP,2013-02-10 16:27:00,
2013-02-10 11:32:00,31.3,-5.2,30.29,North,0,0.0,0.0,20,0.00,,,0.00,WUHU216WMR968SP,2013-02-10 16:32:00,
2013-02-10 11:37:00,30.9,-5.5,30.29,North,0,0.0,0.0,20,0.00,,,0.00,WUHU216WMR968SP,2013-02-10 16:37:00,
2013-02-10 11:42:00,31.1,-2.5,30.29,North,0,0.0,0.0,23,0.00,,,0.00,WUHU216WMR968SP,2013-02-10 16:42:00,
2013-02-10 11:47:00,31.3,-5.2,30.29,North,0,0.0,0.0,20,0.00,,,0.00,WUHU216WMR968SP,2013-02-10 16:47:00,
2013-02-10 11:52:00,31.8,-4.8,30.29,North,0,0.0,0.0,20,0.00,,,0.00,WUHU216WMR968SP,2013-02-10 16:52:00,
2013-02-10 11:57:00,32.2,-4.4,30.29,North,0,0.0,0.0,20,0.00,,,0.00,WUHU216WMR968SP,2013-02-10 16:57:00,
2013-02-10 12:02:00,32.0,-4.6,30.29,North,0,0.0,0.0,20,0.00,,,0.00,WUHU216WMR968SP,2013-02-10 17:02:00,
2013-02-10 12:07:00,32.5,-4.2,30.29,North,0,0.0,0.0,20,0.00,,,0.00,WUHU216WMR968SP,2013-02-10 17:07:00,
2013-02-10 12:12:00,32.7,-4.0,30.29,North,0,0.0,0.0,20,0.00,,,0.00,WUHU216WMR968SP,2013-02-10 17:12:00,
2013-02-10 12:17:00,33.6,-3.3,30.29,North,0,0.0,0.0,20,0.00,,,0.00,WUHU216WMR968SP,2013-02-10 17:17:00,
2013-02-10 12:22:00,33.4,-3.4,30.29,North,0,0.0,0.0,20,0.00,,,0.00,WUHU216WMR968SP,2013-02-10 17:22:00,
2013-02-10 12:27:00,32.5,-4.2,30.29,North,0,0.0,0.0,20,0.00,,,0.00,WUHU216WMR968SP,2013-02-10 17:27:00,
2013-02-10 12:33:00,31.6,-4.9,30.29,North,0,0.0,0.0,20,0.00,,,0.00,WUHU216WMR968SP,2013-02-10 17:33:00,
2013-02-10 12:38:00,31.6,-4.9,30.29,North,0,0.0,0.0,20,0.00,,,0.00,WUHU216WMR968SP,2013-02-10 17:38:00,
2013-02-10 12:43:00,31.1,-5.4,30.29,North,0,0.0,0.0,20,0.00,,,0.00,WUHU216WMR968SP,2013-02-10 17:43:00,
2013-02-10 12:48:00,32.2,-4.4,30.29,North,0,0.0,0.0,20,0.00,,,0.00,WUHU216WMR968SP,2013-02-10 17:48:00,
2013-02-10 12:53:00,33.4,-3.4,30.29,North,0,0.0,0.0,20,0.00,,,0.00,WUHU216WMR968SP,2013-02-10 17:53:00,
2013-02-10 12:58:00,34.5,-2.5,30.29,North,0,0.0,0.0,20,0.00,,,0.00,WUHU216WMR968SP,2013-02-10 17:58:00,
2013-02-10 13:03:00,34.3,-2.7,30.29,North,0,0.0,0.0,20,0.00,,,0.00,WUHU216WMR968SP,2013-02-10 18:03:00,
2013-02-10 13:08:00,35.1,-2.0,30.26,North,0,0.0,0.0,20,0.00,,,0.00,WUHU216WMR968SP,2013-02-10 18:08:00,
2013-02-10 13:13:00,35.6,-2.7,30.26,North,0,0.0,0.0,19,0.00,,,0.00,WUHU216WMR968SP,2013-02-10 18:13:00,
2013-02-10 13:18:00,35.6,-2.7,30.26,North,0,0.0,0.0,19,0.00,,,0.00,WUHU216WMR968SP,2013-02-10 18:18:00,
2013-02-10 13:23:00,35.4,-1.8,30.26,North,0,0.0,0.0,20,0.00,,,0.00,WUHU216WMR968SP,2013-02-10 18:23:00,
2013-02-10 13:28:00,35.6,-2.7,30.26,North,0,0.0,0.0,19,0.00,,,0.00,WUHU216WMR968SP,2013-02-10 18:28:00,
2013-02-10 13:33:00,34.9,-2.2,30.26,North,0,0.0,0.0,20,0.00,,,0.00,WUHU216WMR968SP,2013-02-10 18:33:00,
2013-02-10 13:38:00,34.7,-2.4,30.26,North,0,0.0,0.0,20,0.00,,,0.00,WUHU216WMR968SP,2013-02-10 18:38:00,
2013-02-10 13:43:00,34.3,-2.7,30.26,North,0,0.0,0.0,20,0.00,,,0.00,WUHU216WMR968SP,2013-02-10 18:43:00,
2013-02-10 13:48:00,34.7,-2.4,30.26,North,0,0.0,0.0,20,0.00,,,0.00,WUHU216WMR968SP,2013-02-10 18:48:00,
2013-02-10 13:53:00,35.4,-1.8,30.26,North,0,0.0,0.0,20,0.00,,,0.00,WUHU216WMR968SP,2013-02-10 18:53:00,
2013-02-10 13:58:00,35.1,-2.0,30.26,North,0,0.0,0.0,20,0.00,,,0.00,WUHU216WMR968SP,2013-02-10 18:58:00,
2013-02-10 14:03:00,34.9,-2.2,30.26,North,0,0.0,0.0,20,0.00,,,0.00,WUHU216WMR968SP,2013-02-10 19:03:00,
2013-02-10 14:08:00,35.2,-1.9,30.23,North,0,0.0,0.0,20,0.00,,,0.00,WUHU216WMR968SP,2013-02-10 19:08:00,
2013-02-10 14:13:00,35.2,-1.9,30.23,North,0,0.0,0.0,20,0.00,,,0.00,WUHU216WMR968SP,2013-02-10 19:13:00,
2013-02-10 14:18:00,35.2,-1.9,30.23,North,0,0.0,0.0,20,0.00,,,0.00,WUHU216WMR968SP,2013-02-10 19:18:00,
2013-02-10 14:23:00,35.4,-1.8,30.23,North,0,0.0,0.0,20,0.00,,,0.00,WUHU216WMR968SP,2013-02-10 19:23:00,
2013-02-10 14:28:00,35.8,-2.5,30.23,North,0,0.0,0.0,19,0.00,,,0.00,WUHU216WMR968SP,2013-02-10 19:28:00,
2013-02-10 14:33:00,35.4,-1.8,30.23,North,0,0.0,0.0,20,0.00,,,0.00,WUHU216WMR968SP,2013-02-10 19:33:00,
2013-02-10 14:39:00,35.6,-2.7,30.23,North,0,0.0,0.0,19,0.00,,,0.00,WUHU216WMR968SP,2013-02-10 19:39:00,
2013-02-10 14:44:00,35.2,-1.9,30.23,North,0,0.0,0.0,20,0.00,,,0.00,WUHU216WMR968SP,2013-02-10 19:44:00,
2013-02-10 14:49:00,35.2,-1.9,30.23,North,0,0.0,0.0,20,0.00,,,0.00,WUHU216WMR968SP,2013-02-10 19:49:00,
2013-02-10 14:54:00,35.1,-2.0,30.23,North,0,0.0,0.0,20,0.00,,,0.00,WUHU216WMR968SP,2013-02-10 19:54:00,
2013-02-10 15:00:00,35.4,-1.8,30.23,North,0,0.0,0.0,20,0.00,,,0.00,WUHU216WMR968SP,2013-02-10 20:00:00,
2013-02-10 15:05:00,35.4,-1.8,30.23,North,0,0.0,0.0,20,0.00,,,0.00,WUHU216WMR968SP,2013-02-10 20:05:00,
2013-02-10 15:10:00,35.1,-2.0,30.23,North,0,0.0,0.0,20,0.00,,,0.00,WUHU216WMR968SP,2013-02-10 20:10:00,
2013-02-10 15:15:00,34.2,-2.8,30.23,North,0,0.0,0.0,20,0.00,,,0.00,WUHU216WMR968SP,2013-02-10 20:15:00,
2013-02-10 15:20:00,33.8,-3.1,30.23,North,0,0.0,0.0,20,0.00,,,0.00,WUHU216WMR968SP,2013-02-10 20:20:00,
2013-02-10 15:25:00,33.4,-3.4,30.23,North,0,0.0,0.0,20,0.00,,,0.00,WUHU216WMR968SP,2013-02-10 20:25:00,
2013-02-10 15:30:00,32.9,-3.9,30.23,North,0,0.0,0.0,20,0.00,,,0.00,WUHU216WMR968SP,2013-02-10 20:30:00,
2013-02-10 15:35:00,32.7,-4.0,30.23,North,0,0.0,0.0,20,0.00,,,0.00,WUHU216WMR968SP,2013-02-10 20:35:00,
2013-02-10 15:40:00,32.4,-4.3,30.26,North,0,0.0,0.0,20,0.00,,,0.00,WUHU216WMR968SP,2013-02-10 20:40:00,
2013-02-10 15:45:00,32.2,-4.4,30.26,North,0,0.0,0.0,20,0.00,,,0.00,WUHU216WMR968SP,2013-02-10 20:45:00,
2013-02-10 15:50:00,32.0,-4.6,30.26,North,0,0.0,0.0,20,0.00,,,0.00,WUHU216WMR968SP,2013-02-10 20:50:00,
2013-02-10 15:55:00,31.6,-4.9,30.26,North,0,0.0,0.0,20,0.00,,,0.00,WUHU216WMR968SP,2013-02-10 20:55:00,
2013-02-10 16:00:00,31.3,-5.2,30.26,North,0,0.0,0.0,20,0.00,,,0.00,WUHU216WMR968SP,2013-02-10 21:00:00,
2013-02-10 16:05:00,31.1,-5.4,30.26,North,0,0.0,0.0,20,0.00,,,0.00,WUHU216WMR968SP,2013-02-10 21:05:00,
2013-02-10 16:10:00,31.1,-5.4,30.26,North,0,0.0,0.0,20,0.00,,,0.00,WUHU216WMR968SP,2013-02-10 21:10:00,
2013-02-10 16:15:00,31.1,-5.4,30.26,North,0,0.0,0.0,20,0.00,,,0.00,WUHU216WMR968SP,2013-02-10 21:15:00,
2013-02-10 16:20:00,31.1,-5.4,30.26,North,0,0.0,0.0,20,0.00,,,0.00,WUHU216WMR968SP,2013-02-10 21:20:00,
2013-02-10 16:25:00,30.6,-5.8,30.26,North,0,0.0,0.0,20,0.00,,,0.00,WUHU216WMR968SP,2013-02-10 21:25:00,
2013-02-10 16:30:00,30.4,-5.9,30.26,North,0,0.0,0.0,20,0.00,,,0.00,WUHU216WMR968SP,2013-02-10 21:30:00,
2013-02-10 16:35:00,30.2,-6.1,30.26,North,0,0.0,0.0,20,0.00,,,0.00,WUHU216WMR968SP,2013-02-10 21:35:00,
2013-02-10 16:40:00,30.2,-3.3,30.26,North,0,0.0,0.0,23,0.00,,,0.00,WUHU216WMR968SP,2013-02-10 21:40:00,
2013-02-10 16:45:00,29.7,-3.7,30.26,North,0,0.0,0.0,23,0.00,,,0.00,WUHU216WMR968SP,2013-02-10 21:45:00,
2013-02-10 16:50:00,29.3,-4.0,30.26,North,0,0.0,0.0,23,0.00,,,0.00,WUHU216WMR968SP,2013-02-10 21:50:00,
2013-02-10 16:55:00,28.9,-4.4,30.26,North,0,0.0,0.0,23,0.00,,,0.00,WUHU216WMR968SP,2013-02-10 21:55:00,
2013-02-10 17:00:00,28.8,-4.5,30.26,North,0,0.0,0.0,23,0.00,,,0.00,WUHU216WMR968SP,2013-02-10 22:00:00,
2013-02-10 17:05:00,28.4,-4.8,30.26,North,0,0.0,0.0,23,0.00,,,0.00,WUHU216WMR968SP,2013-02-10 22:05:00,
2013-02-10 17:10:00,28.2,-5.0,30.26,North,0,0.0,0.0,23,0.00,,,0.00,WUHU216WMR968SP,2013-02-10 22:10:00,
2013-02-10 17:15:00,27.7,-5.4,30.26,North,0,0.0,0.0,23,0.00,,,0.00,WUHU216WMR968SP,2013-02-10 22:15:00,
2013-02-10 17:20:00,27.3,-3.2,30.26,North,0,0.0,0.0,26,0.00,,,0.00,WUHU216WMR968SP,2013-02-10 22:20:00,
2013-02-10 17:25:00,27.0,-3.5,30.26,North,0,0.0,0.0,26,0.00,,,0.00,WUHU216WMR968SP,2013-02-10 22:25:00,
2013-02-10 17:30:00,26.8,0.0,30.26,North,0,0.0,0.0,31,0.00,,,0.00,WUHU216WMR968SP,2013-02-10 22:30:00,
2013-02-10 17:35:00,26.4,0.3,30.26,North,0,0.0,0.0,32,0.00,,,0.00,WUHU216WMR968SP,2013-02-10 22:35:00,
2013-02-10 17:40:00,26.2,-0.6,30.26,North,0,0.0,0.0,31,0.00,,,0.00,WUHU216WMR968SP,2013-02-10 22:40:00,
2013-02-10 17:45:00,25.9,-0.2,30.26,North,0,0.0,0.0,32,0.00,,,0.00,WUHU216WMR968SP,2013-02-10 22:45:00,
2013-02-10 17:50:00,25.3,-0.7,30.26,North,0,0.0,0.0,32,0.00,,,0.00,WUHU216WMR968SP,2013-02-10 22:50:00,
2013-02-10 17:55:00,25.2,-0.8,30.26,North,0,0.0,0.0,32,0.00,,,0.00,WUHU216WMR968SP,2013-02-10 22:55:00,
2013-02-10 18:00:00,25.0,-0.9,30.26,North,0,0.0,0.0,32,0.00,,,0.00,WUHU216WMR968SP,2013-02-10 23:00:00,
2013-02-10 18:05:00,25.0,-0.9,30.26,North,0,0.0,0.0,32,0.00,,,0.00,WUHU216WMR968SP,2013-02-10 23:05:00,
2013-02-10 18:10:00,25.0,-0.9,30.26,North,0,0.0,0.0,32,0.00,,,0.00,WUHU216WMR968SP,2013-02-10 23:10:00,
2013-02-10 18:15:00,25.0,-0.9,30.26,North,0,0.0,0.0,32,0.00,,,0.00,WUHU216WMR968SP,2013-02-10 23:15:00,
2013-02-10 18:20:00,24.8,-1.1,30.26,North,0,0.0,0.0,32,0.00,,,0.00,WUHU216WMR968SP,2013-02-10 23:20:00,
2013-02-10 18:25:00,24.3,-1.6,30.26,North,0,0.0,0.0,32,0.00,,,0.00,WUHU216WMR968SP,2013-02-10 23:25:00,
2013-02-10 18:30:00,23.7,-2.1,30.26,North,0,0.0,0.0,32,0.00,,,0.00,WUHU216WMR968SP,2013-02-10 23:30:00,
2013-02-10 18:35:00,23.4,-1.7,30.26,North,0,0.0,0.0,33,0.00,,,0.00,WUHU216WMR968SP,2013-02-10 23:35:00,
2013-02-10 18:40:00,22.8,-2.2,30.26,North,0,0.0,0.0,33,0.00,,,0.00,WUHU216WMR968SP,2013-02-10 23:40:00,
2013-02-10 18:45:00,22.8,-2.2,30.26,North,0,0.0,0.0,33,0.00,,,0.00,WUHU216WMR968SP,2013-02-10 23:45:00,
2013-02-10 18:50:00,22.6,-2.4,30.26,North,0,0.0,0.0,33,0.00,,,0.00,WUHU216WMR968SP,2013-02-10 23:50:00,
2013-02-10 18:55:00,22.1,-2.9,30.26,North,0,0.0,0.0,33,0.00,,,0.00,WUHU216WMR968SP,2013-02-10 23:55:00,
2013-02-10 19:00:00,21.9,-3.0,30.26,North,0,0.0,0.0,33,0.00,,,0.00,WUHU216WMR968SP,2013-02-11 00:00:00,
2013-02-10 19:05:00,21.2,-2.4,30.26,North,0,0.0,0.0,35,0.00,,,0.00,WUHU216WMR968SP,2013-02-11 00:05:00,
2013-02-10 19:10:00,20.8,-1.6,30.26,North,0,0.0,0.0,37,0.00,,,0.00,WUHU216WMR968SP,2013-02-11 00:10:00,
2013-02-10 19:15:00,20.3,-1.5,30.26,North,0,0.0,0.0,38,0.00,,,0.00,WUHU216WMR968SP,2013-02-11 00:15:00,
2013-02-10 19:20:00,19.9,-0.7,30.26,North,0,0.0,0.0,40,0.00,,,0.00,WUHU216WMR968SP,2013-02-11 00:20:00,
2013-02-10 19:25:00,19.6,-0.5,30.26,North,0,0.0,0.0,41,0.00,,,0.00,WUHU216WMR968SP,2013-02-11 00:25:00,
2013-02-10 19:30:00,19.6,0.0,30.26,North,0,0.0,0.0,42,0.00,,,0.00,WUHU216WMR968SP,2013-02-11 00:30:00,
2013-02-10 19:35:00,19.4,-0.1,30.26,North,0,0.0,0.0,42,0.00,,,0.00,WUHU216WMR968SP,2013-02-11 00:35:00,
2013-02-10 19:40:00,19.0,0.0,30.23,North,0,0.0,0.0,43,0.00,,,0.00,WUHU216WMR968SP,2013-02-11 00:40:00,
2013-02-10 19:45:00,18.5,-0.4,30.23,North,0,0.0,0.0,43,0.00,,,0.00,WUHU216WMR968SP,2013-02-11 00:45:00,
2013-02-10 19:50:00,18.3,-0.6,30.23,North,0,0.0,0.0,43,0.00,,,0.00,WUHU216WMR968SP,2013-02-11 00:50:00,
2013-02-10 19:55:00,18.3,-0.6,30.26,North,0,0.0,0.0,43,0.00,,,0.00,WUHU216WMR968SP,2013-02-11 00:55:00,
2013-02-10 20:00:00,17.6,-1.3,30.26,North,0,0.0,0.0,43,0.00,,,0.00,WUHU216WMR968SP,2013-02-11 01:00:00,
2013-02-10 20:05:00,17.4,-1.0,30.26,North,0,0.0,0.0,44,0.00,,,0.00,WUHU216WMR968SP,2013-02-11 01:05:00,
2013-02-10 20:10:00,17.1,-1.2,30.26,North,0,0.0,0.0,44,0.00,,,0.00,WUHU216WMR968SP,2013-02-11 01:10:00,
2013-02-10 20:15:00,17.1,-1.2,30.26,North,0,0.0,0.0,44,0.00,,,0.00,WUHU216WMR968SP,2013-02-11 01:15:00,
2013-02-10 20:20:00,16.7,-1.6,30.26,North,0,0.0,0.0,44,0.00,,,0.00,WUHU216WMR968SP,2013-02-11 01:20:00,
2013-02-10 20:25:00,16.7,-1.6,30.26,North,0,0.0,0.0,44,0.00,,,0.00,WUHU216WMR968SP,2013-02-11 01:25:00,
2013-02-10 20:30:00,16.3,-2.0,30.26,North,0,0.0,0.0,44,0.00,,,0.00,WUHU216WMR968SP,2013-02-11 01:30:00,
2013-02-10 20:35:00,16.0,-2.2,30.26,North,0,0.0,0.0,44,0.00,,,0.00,WUHU216WMR968SP,2013-02-11 01:35:00,
2013-02-10 20:40:00,16.0,-2.2,30.26,North,0,0.0,0.0,44,0.00,,,0.00,WUHU216WMR968SP,2013-02-11 01:40:00,
2013-02-10 20:45:00,15.6,-2.1,30.26,North,0,0.0,0.0,45,0.00,,,0.00,WUHU216WMR968SP,2013-02-11 01:45:00,
2013-02-10 20:50:00,15.3,-2.4,30.26,North,0,0.0,0.0,45,0.00,,,0.00,WUHU216WMR968SP,2013-02-11 01:50:00,
2013-02-10 20:55:00,15.3,-2.4,30.23,North,0,0.0,0.0,45,0.00,,,0.00,WUHU216WMR968SP,2013-02-11 01:55:00,
2013-02-10 21:00:00,15.1,-2.6,30.23,North,0,0.0,0.0,45,0.00,,,0.00,WUHU216WMR968SP,2013-02-11 02:00:00,
2013-02-10 21:05:00,15.1,-2.6,30.23,North,0,0.0,0.0,45,0.00,,,0.00,WUHU216WMR968SP,2013-02-11 02:05:00,
2013-02-10 21:10:00,14.9,-2.8,30.26,North,0,0.0,0.0,45,0.00,,,0.00,WUHU216WMR968SP,2013-02-11 02:10:00,
2013-02-10 21:15:00,14.9,-2.8,30.26,North,0,0.0,0.0,45,0.00,,,0.00,WUHU216WMR968SP,2013-02-11 02:15:00,
2013-02-10 21:20:00,14.4,-3.2,30.26,North,0,0.0,0.0,45,0.00,,,0.00,WUHU216WMR968SP,2013-02-11 02:20:00,
2013-02-10 21:25:00,13.8,-3.8,30.26,North,0,0.0,0.0,45,0.00,,,0.00,WUHU216WMR968SP,2013-02-11 02:25:00,
2013-02-10 21:30:00,13.8,-3.8,30.26,North,0,0.0,0.0,45,0.00,,,0.00,WUHU216WMR968SP,2013-02-11 02:30:00,
2013-02-10 21:35:00,13.6,-3.9,30.26,North,0,0.0,0.0,45,0.00,,,0.00,WUHU216WMR968SP,2013-02-11 02:35:00,
2013-02-10 21:40:00,13.3,-4.2,30.26,North,0,0.0,0.0,45,0.00,,,0.00,WUHU216WMR968SP,2013-02-11 02:40:00,
2013-02-10 21:45:00,13.1,-4.4,30.26,North,0,0.0,0.0,45,0.00,,,0.00,WUHU216WMR968SP,2013-02-11 02:45:00,
2013-02-10 21:50:00,12.9,-4.6,30.26,North,0,0.0,0.0,45,0.00,,,0.00,WUHU216WMR968SP,2013-02-11 02:50:00,
2013-02-10 21:56:00,12.7,-4.8,30.26,North,0,0.0,0.0,45,0.00,,,0.00,WUHU216WMR968SP,2013-02-11 02:56:00,
2013-02-10 22:01:00,12.9,-4.6,30.26,North,0,0.0,0.0,45,0.00,,,0.00,WUHU216WMR968SP,2013-02-11 03:01:00,
2013-02-10 22:06:00,12.7,-4.8,30.26,North,0,0.0,0.0,45,0.00,,,0.00,WUHU216WMR968SP,2013-02-11 03:06:00,
2013-02-10 22:11:00,12.6,-4.9,30.26,North,0,0.0,0.0,45,0.00,,,0.00,WUHU216WMR968SP,2013-02-11 03:11:00,
2013-02-10 22:16:00,12.4,-5.0,30.26,North,0,0.0,0.0,45,0.00,,,0.00,WUHU216WMR968SP,2013-02-11 03:16:00,
2013-02-10 22:21:00,12.4,-5.0,30.26,North,0,0.0,0.0,45,0.00,,,0.00,WUHU216WMR968SP,2013-02-11 03:21:00,
2013-02-10 22:26:00,12.0,-5.4,30.26,North,0,0.0,0.0,45,0.00,,,0.00,WUHU216WMR968SP,2013-02-11 03:26:00,
2013-02-10 22:31:00,11.8,-5.6,30.26,North,0,0.0,0.0,45,0.00,,,0.00,WUHU216WMR968SP,2013-02-11 03:31:00,
2013-02-10 22:36:00,11.8,-5.6,30.26,North,0,0.0,0.0,45,0.00,,,0.00,WUHU216WMR968SP,2013-02-11 03:36:00,
2013-02-10 22:41:00,11.7,-5.7,30.26,North,0,0.0,0.0,45,0.00,,,0.00,WUHU216WMR968SP,2013-02-11 03:41:00,
2013-02-10 22:46:00,11.5,-5.9,30.26,North,0,0.0,0.0,45,0.00,,,0.00,WUHU216WMR968SP,2013-02-11 03:46:00,
2013-02-10 22:51:00,10.9,-6.4,30.26,North,0,0.0,0.0,45,0.00,,,0.00,WUHU216WMR968SP,2013-02-11 03:51:00,
2013-02-10 22:56:00,10.9,-6.4,30.26,North,0,0.0,0.0,45,0.00,,,0.00,WUHU216WMR968SP,2013-02-11 03:56:00,
2013-02-10 23:01:00,10.6,-6.7,30.26,North,0,0.0,0.0,45,0.00,,,0.00,WUHU216WMR968SP,2013-02-11 04:01:00,
2013-02-10 23:06:00,10.4,-6.9,30.26,North,0,0.0,0.0,45,0.00,,,0.00,WUHU216WMR968SP,2013-02-11 04:06:00,
2013-02-10 23:11:00,10.2,-7.1,30.26,North,0,0.0,0.0,45,0.00,,,0.00,WUHU216WMR968SP,2013-02-11 04:11:00,
2013-02-10 23:16:00,10.0,-7.2,30.26,North,0,0.0,0.0,45,0.00,,,0.00,WUHU216WMR968SP,2013-02-11 04:16:00,
2013-02-10 23:21:00,10.2,-7.1,30.26,North,0,0.0,0.0,45,0.00,,,0.00,WUHU216WMR968SP,2013-02-11 04:21:00,
2013-02-10 23:26:00,10.2,-7.1,30.26,North,0,0.0,0.0,45,0.00,,,0.00,WUHU216WMR968SP,2013-02-11 04:26:00,
2013-02-10 23:31:00,10.2,-7.1,30.26,North,0,0.0,0.0,45,0.00,,,0.00,WUHU216WMR968SP,2013-02-11 04:31:00,
2013-02-10 23:36:00,10.0,-7.2,30.26,North,0,0.0,0.0,45,0.00,,,0.00,WUHU216WMR968SP,2013-02-11 04:36:00,
2013-02-10 23:41:00,9.5,-7.7,30.26,North,0,0.0,0.0,45,0.00,,,0.00,WUHU216WMR968SP,2013-02-11 04:41:00,
2013-02-10 23:46:00,9.5,-7.7,30.26,North,0,0.0,0.0,45,0.00,,,0.00,WUHU216WMR968SP,2013-02-11 04:46:00,
2013-02-10 23:51:00,9.3,-7.9,30.26,North,0,0.0,0.0,45,0.00,,,0.00,WUHU216WMR968SP,2013-02-11 04:51:00,
2013-02-10 23:56:00,9.5,-7.7,30.26,North,0,0.0,0.0,45,0.00,,,0.00,WUHU216WMR968SP,2013-02-11 04:56:00,